sensor_id;sensor_type;location;lat;lon;timestamp;temperature;humidity
18581;DHT22;9420;50.876;7.012;2023-05-23T00:01:48;16.50;99.90
18581;DHT22;9420;50.876;7.012;2023-05-23T00:04:19;16.40;99.90
18581;DHT22;9420;50.876;7.012;2023-05-23T00:06:46;16.40;99.90
18581;DHT22;9420;50.876;7.012;2023-05-23T00:09:16;16.40;99.90
18581;DHT22;9420;50.876;7.012;2023-05-23T00:11:43;16.30;99.90
18581;DHT22;9420;50.876;7.012;2023-05-23T00:14:11;16.20;99.90
18581;DHT22;9420;50.876;7.012;2023-05-23T00:16:39;16.20;99.90
18581;DHT22;9420;50.876;7.012;2023-05-23T00:19:08;16.20;99.90
18581;DHT22;9420;50.876;7.012;2023-05-23T00:21:35;16.20;99.90
18581;DHT22;9420;50.876;7.012;2023-05-23T00:24:02;16.20;99.90
18581;DHT22;9420;50.876;7.012;2023-05-23T00:26:31;16.10;99.90
18581;DHT22;9420;50.876;7.012;2023-05-23T00:28:58;16.00;99.90
18581;DHT22;9420;50.876;7.012;2023-05-23T00:31:25;16.10;99.90
18581;DHT22;9420;50.876;7.012;2023-05-23T00:33:52;16.00;99.90
18581;DHT22;9420;50.876;7.012;2023-05-23T00:36:19;15.90;99.90
18581;DHT22;9420;50.876;7.012;2023-05-23T00:38:47;15.90;1.00
18581;DHT22;9420;50.876;7.012;2023-05-23T00:41:14;15.80;1.00
18581;DHT22;9420;50.876;7.012;2023-05-23T00:43:44;15.80;1.00
18581;DHT22;9420;50.876;7.012;2023-05-23T00:46:11;15.80;1.00
18581;DHT22;9420;50.876;7.012;2023-05-23T00:48:39;15.70;1.00
18581;DHT22;9420;50.876;7.012;2023-05-23T00:51:06;15.70;1.00
18581;DHT22;9420;50.876;7.012;2023-05-23T00:53:33;15.70;1.00
18581;DHT22;9420;50.876;7.012;2023-05-23T00:56:01;15.70;1.00
18581;DHT22;9420;50.876;7.012;2023-05-23T00:58:29;15.60;1.00
18581;DHT22;9420;50.876;7.012;2023-05-23T01:00:58;15.50;1.00
18581;DHT22;9420;50.876;7.012;2023-05-23T01:03:25;15.50;1.00
18581;DHT22;9420;50.876;7.012;2023-05-23T01:05:54;15.40;1.00
18581;DHT22;9420;50.876;7.012;2023-05-23T01:08:21;15.50;1.00
18581;DHT22;9420;50.876;7.012;2023-05-23T01:10:48;15.50;1.00
18581;DHT22;9420;50.876;7.012;2023-05-23T01:13:21;15.60;1.00
18581;DHT22;9420;50.876;7.012;2023-05-23T01:16:01;15.60;1.00
18581;DHT22;9420;50.876;7.012;2023-05-23T01:18:38;15.70;1.00
18581;DHT22;9420;50.876;7.012;2023-05-23T01:21:11;15.70;1.00
18581;DHT22;9420;50.876;7.012;2023-05-23T01:24:02;15.80;1.00
18581;DHT22;9420;50.876;7.012;2023-05-23T01:26:58;15.80;1.00
18581;DHT22;9420;50.876;7.012;2023-05-23T01:29:35;15.90;1.00
18581;DHT22;9420;50.876;7.012;2023-05-23T01:32:09;15.90;1.00
18581;DHT22;9420;50.876;7.012;2023-05-23T01:34:39;16.10;99.90
18581;DHT22;9420;50.876;7.012;2023-05-23T01:37:07;16.10;99.90
18581;DHT22;9420;50.876;7.012;2023-05-23T01:39:35;16.10;19.10
18581;DHT22;9420;50.876;7.012;2023-05-23T01:42:03;16.10;70.70
18581;DHT22;9420;50.876;7.012;2023-05-23T01:44:33;16.10;17.50
18581;DHT22;9420;50.876;7.012;2023-05-23T01:47:02;16.10;99.90
18581;DHT22;9420;50.876;7.012;2023-05-23T01:49:31;16.00;99.90
18581;DHT22;9420;50.876;7.012;2023-05-23T01:52:01;16.00;99.90
18581;DHT22;9420;50.876;7.012;2023-05-23T01:54:29;16.00;99.90
18581;DHT22;9420;50.876;7.012;2023-05-23T01:56:57;16.00;99.90
18581;DHT22;9420;50.876;7.012;2023-05-23T01:59:27;16.00;99.90
18581;DHT22;9420;50.876;7.012;2023-05-23T02:01:55;15.90;99.90
18581;DHT22;9420;50.876;7.012;2023-05-23T02:04:22;15.90;99.90
18581;DHT22;9420;50.876;7.012;2023-05-23T02:06:49;15.90;99.90
18581;DHT22;9420;50.876;7.012;2023-05-23T02:09:16;15.80;99.90
18581;DHT22;9420;50.876;7.012;2023-05-23T02:11:43;15.90;99.90
18581;DHT22;9420;50.876;7.012;2023-05-23T02:14:10;15.80;99.90
18581;DHT22;9420;50.876;7.012;2023-05-23T02:16:37;15.80;99.90
18581;DHT22;9420;50.876;7.012;2023-05-23T02:19:05;15.70;68.00
18581;DHT22;9420;50.876;7.012;2023-05-23T02:21:32;15.70;3.10
18581;DHT22;9420;50.876;7.012;2023-05-23T02:23:59;15.70;1.00
18581;DHT22;9420;50.876;7.012;2023-05-23T02:26:26;15.70;1.00
18581;DHT22;9420;50.876;7.012;2023-05-23T02:28:53;15.70;1.00
18581;DHT22;9420;50.876;7.012;2023-05-23T02:31:20;15.70;1.00
18581;DHT22;9420;50.876;7.012;2023-05-23T02:33:47;15.70;1.00
18581;DHT22;9420;50.876;7.012;2023-05-23T02:36:16;15.80;1.00
18581;DHT22;9420;50.876;7.012;2023-05-23T02:38:43;15.80;1.00
18581;DHT22;9420;50.876;7.012;2023-05-23T02:41:10;15.80;1.00
18581;DHT22;9420;50.876;7.012;2023-05-23T02:43:37;15.80;1.00
18581;DHT22;9420;50.876;7.012;2023-05-23T02:46:04;15.70;1.00
18581;DHT22;9420;50.876;7.012;2023-05-23T02:48:31;15.70;1.00
18581;DHT22;9420;50.876;7.012;2023-05-23T02:50:58;15.70;1.00
18581;DHT22;9420;50.876;7.012;2023-05-23T02:53:26;15.70;1.00
18581;DHT22;9420;50.876;7.012;2023-05-23T02:55:53;15.70;1.00
18581;DHT22;9420;50.876;7.012;2023-05-23T02:58:20;15.70;1.00
18581;DHT22;9420;50.876;7.012;2023-05-23T03:00:47;15.80;1.00
18581;DHT22;9420;50.876;7.012;2023-05-23T03:03:14;15.70;1.00
18581;DHT22;9420;50.876;7.012;2023-05-23T03:05:42;15.60;1.00
18581;DHT22;9420;50.876;7.012;2023-05-23T03:08:08;15.70;1.00
18581;DHT22;9420;50.876;7.012;2023-05-23T03:10:37;15.70;1.00
18581;DHT22;9420;50.876;7.012;2023-05-23T03:13:04;15.60;1.00
18581;DHT22;9420;50.876;7.012;2023-05-23T03:15:31;15.70;1.00
18581;DHT22;9420;50.876;7.012;2023-05-23T03:17:57;15.60;1.00
18581;DHT22;9420;50.876;7.012;2023-05-23T03:20:25;15.60;1.00
18581;DHT22;9420;50.876;7.012;2023-05-23T03:22:52;15.60;1.00
18581;DHT22;9420;50.876;7.012;2023-05-23T03:25:19;15.60;1.00
18581;DHT22;9420;50.876;7.012;2023-05-23T03:27:47;15.60;1.00
18581;DHT22;9420;50.876;7.012;2023-05-23T03:30:14;15.50;1.00
18581;DHT22;9420;50.876;7.012;2023-05-23T03:32:41;15.50;1.00
18581;DHT22;9420;50.876;7.012;2023-05-23T03:35:08;15.50;1.00
18581;DHT22;9420;50.876;7.012;2023-05-23T03:37:36;15.50;47.90
18581;DHT22;9420;50.876;7.012;2023-05-23T03:40:03;15.50;70.50
18581;DHT22;9420;50.876;7.012;2023-05-23T03:42:31;15.50;72.80
18581;DHT22;9420;50.876;7.012;2023-05-23T03:45:17;15.50;99.90
18581;DHT22;9420;50.876;7.012;2023-05-23T03:48:02;15.40;99.90
18581;DHT22;9420;50.876;7.012;2023-05-23T03:50:46;15.40;99.90
18581;DHT22;9420;50.876;7.012;2023-05-23T03:53:13;15.20;1.00
18581;DHT22;9420;50.876;7.012;2023-05-23T03:55:41;15.10;99.90
18581;DHT22;9420;50.876;7.012;2023-05-23T03:58:08;15.00;99.90
18581;DHT22;9420;50.876;7.012;2023-05-23T04:00:37;15.00;1.00
18581;DHT22;9420;50.876;7.012;2023-05-23T04:03:04;15.00;99.90
18581;DHT22;9420;50.876;7.012;2023-05-23T04:05:32;14.90;99.90
18581;DHT22;9420;50.876;7.012;2023-05-23T04:08:00;14.90;99.90
18581;DHT22;9420;50.876;7.012;2023-05-23T04:10:26;15.00;1.00
18581;DHT22;9420;50.876;7.012;2023-05-23T04:12:53;14.90;99.90
18581;DHT22;9420;50.876;7.012;2023-05-23T04:15:21;15.00;1.00
18581;DHT22;9420;50.876;7.012;2023-05-23T04:17:49;14.90;99.90
18581;DHT22;9420;50.876;7.012;2023-05-23T04:20:16;14.90;99.90
18581;DHT22;9420;50.876;7.012;2023-05-23T04:22:43;14.90;99.90
18581;DHT22;9420;50.876;7.012;2023-05-23T04:25:10;15.00;99.90
18581;DHT22;9420;50.876;7.012;2023-05-23T04:27:38;15.00;99.90
18581;DHT22;9420;50.876;7.012;2023-05-23T04:30:06;15.00;99.90
18581;DHT22;9420;50.876;7.012;2023-05-23T04:32:34;15.00;99.90
18581;DHT22;9420;50.876;7.012;2023-05-23T04:35:04;15.00;24.50
18581;DHT22;9420;50.876;7.012;2023-05-23T04:37:31;15.10;1.00
18581;DHT22;9420;50.876;7.012;2023-05-23T04:39:59;15.10;1.00
18581;DHT22;9420;50.876;7.012;2023-05-23T04:42:26;15.10;1.00
18581;DHT22;9420;50.876;7.012;2023-05-23T04:44:53;15.20;1.00
18581;DHT22;9420;50.876;7.012;2023-05-23T04:47:22;15.20;1.00
18581;DHT22;9420;50.876;7.012;2023-05-23T04:49:53;15.20;1.00
18581;DHT22;9420;50.876;7.012;2023-05-23T04:52:23;15.20;1.00
18581;DHT22;9420;50.876;7.012;2023-05-23T04:54:51;15.20;1.00
18581;DHT22;9420;50.876;7.012;2023-05-23T04:57:18;15.20;1.00
18581;DHT22;9420;50.876;7.012;2023-05-23T04:59:46;15.30;1.00
18581;DHT22;9420;50.876;7.012;2023-05-23T05:02:13;15.20;1.00
18581;DHT22;9420;50.876;7.012;2023-05-23T05:04:40;15.20;1.00
18581;DHT22;9420;50.876;7.012;2023-05-23T05:07:07;15.20;1.00
18581;DHT22;9420;50.876;7.012;2023-05-23T05:09:35;15.20;1.00
18581;DHT22;9420;50.876;7.012;2023-05-23T05:12:02;15.10;1.00
18581;DHT22;9420;50.876;7.012;2023-05-23T05:14:29;15.10;1.00
18581;DHT22;9420;50.876;7.012;2023-05-23T05:16:56;15.00;1.00
18581;DHT22;9420;50.876;7.012;2023-05-23T05:19:23;15.00;89.80
18581;DHT22;9420;50.876;7.012;2023-05-23T05:21:50;15.10;99.90
18581;DHT22;9420;50.876;7.012;2023-05-23T05:24:17;15.10;99.90
18581;DHT22;9420;50.876;7.012;2023-05-23T05:26:47;15.10;99.90
18581;DHT22;9420;50.876;7.012;2023-05-23T05:29:14;15.10;99.90
18581;DHT22;9420;50.876;7.012;2023-05-23T05:31:41;15.10;99.90
18581;DHT22;9420;50.876;7.012;2023-05-23T05:34:09;15.00;95.80
18581;DHT22;9420;50.876;7.012;2023-05-23T05:36:37;15.10;99.90
18581;DHT22;9420;50.876;7.012;2023-05-23T05:39:10;15.00;1.00
18581;DHT22;9420;50.876;7.012;2023-05-23T05:41:37;15.00;1.00
18581;DHT22;9420;50.876;7.012;2023-05-23T05:44:06;15.10;1.00
18581;DHT22;9420;50.876;7.012;2023-05-23T05:46:34;15.10;1.00
18581;DHT22;9420;50.876;7.012;2023-05-23T05:49:01;15.20;1.00
18581;DHT22;9420;50.876;7.012;2023-05-23T05:51:28;15.30;1.00
18581;DHT22;9420;50.876;7.012;2023-05-23T05:53:56;15.20;1.00
18581;DHT22;9420;50.876;7.012;2023-05-23T05:56:26;15.10;1.00
18581;DHT22;9420;50.876;7.012;2023-05-23T05:58:56;15.10;1.00
18581;DHT22;9420;50.876;7.012;2023-05-23T06:01:36;15.20;1.00
18581;DHT22;9420;50.876;7.012;2023-05-23T06:04:41;15.20;1.00
18581;DHT22;9420;50.876;7.012;2023-05-23T06:07:08;15.30;1.00
18581;DHT22;9420;50.876;7.012;2023-05-23T06:09:35;15.20;1.00
18581;DHT22;9420;50.876;7.012;2023-05-23T06:12:02;15.20;1.00
18581;DHT22;9420;50.876;7.012;2023-05-23T06:14:29;15.20;1.00
18581;DHT22;9420;50.876;7.012;2023-05-23T06:16:56;15.10;1.00
18581;DHT22;9420;50.876;7.012;2023-05-23T06:19:23;15.20;1.00
18581;DHT22;9420;50.876;7.012;2023-05-23T06:21:52;15.10;1.00
18581;DHT22;9420;50.876;7.012;2023-05-23T06:24:19;15.10;1.00
18581;DHT22;9420;50.876;7.012;2023-05-23T06:26:46;15.00;1.00
18581;DHT22;9420;50.876;7.012;2023-05-23T06:29:13;15.00;1.00
18581;DHT22;9420;50.876;7.012;2023-05-23T06:31:40;15.10;1.00
18581;DHT22;9420;50.876;7.012;2023-05-23T06:34:07;15.10;1.00
18581;DHT22;9420;50.876;7.012;2023-05-23T06:36:34;15.10;1.00
18581;DHT22;9420;50.876;7.012;2023-05-23T06:39:03;15.10;1.00
18581;DHT22;9420;50.876;7.012;2023-05-23T06:41:30;15.20;1.00
18581;DHT22;9420;50.876;7.012;2023-05-23T06:43:57;15.20;1.00
18581;DHT22;9420;50.876;7.012;2023-05-23T06:46:24;15.30;1.00
18581;DHT22;9420;50.876;7.012;2023-05-23T06:48:51;15.30;1.00
18581;DHT22;9420;50.876;7.012;2023-05-23T06:51:18;15.20;1.00
18581;DHT22;9420;50.876;7.012;2023-05-23T06:53:45;15.10;1.00
18581;DHT22;9420;50.876;7.012;2023-05-23T06:56:13;15.10;99.90
18581;DHT22;9420;50.876;7.012;2023-05-23T06:58:40;15.10;99.90
18581;DHT22;9420;50.876;7.012;2023-05-23T07:01:07;15.10;99.90
18581;DHT22;9420;50.876;7.012;2023-05-23T07:03:35;15.10;99.90
18581;DHT22;9420;50.876;7.012;2023-05-23T07:06:02;15.10;99.90
18581;DHT22;9420;50.876;7.012;2023-05-23T07:08:30;15.00;99.90
18581;DHT22;9420;50.876;7.012;2023-05-23T07:10:57;15.00;99.90
18581;DHT22;9420;50.876;7.012;2023-05-23T07:13:25;15.00;99.90
18581;DHT22;9420;50.876;7.012;2023-05-23T07:15:52;15.00;99.90
18581;DHT22;9420;50.876;7.012;2023-05-23T07:18:19;15.20;99.90
18581;DHT22;9420;50.876;7.012;2023-05-23T07:20:46;15.30;99.90
18581;DHT22;9420;50.876;7.012;2023-05-23T07:23:14;15.30;1.00
18581;DHT22;9420;50.876;7.012;2023-05-23T07:25:41;15.30;1.00
18581;DHT22;9420;50.876;7.012;2023-05-23T07:28:08;15.40;1.00
18581;DHT22;9420;50.876;7.012;2023-05-23T07:30:37;15.40;1.00
18581;DHT22;9420;50.876;7.012;2023-05-23T07:33:04;15.50;1.00
18581;DHT22;9420;50.876;7.012;2023-05-23T07:35:31;15.40;99.90
18581;DHT22;9420;50.876;7.012;2023-05-23T07:37:58;15.30;99.90
18581;DHT22;9420;50.876;7.012;2023-05-23T07:40:25;15.40;99.90
18581;DHT22;9420;50.876;7.012;2023-05-23T07:42:52;15.40;1.00
18581;DHT22;9420;50.876;7.012;2023-05-23T07:45:20;15.40;99.90
18581;DHT22;9420;50.876;7.012;2023-05-23T07:47:48;15.40;99.90
18581;DHT22;9420;50.876;7.012;2023-05-23T07:50:16;15.40;99.90
18581;DHT22;9420;50.876;7.012;2023-05-23T07:52:43;15.50;99.90
18581;DHT22;9420;50.876;7.012;2023-05-23T07:55:10;15.60;99.90
18581;DHT22;9420;50.876;7.012;2023-05-23T07:57:37;15.60;99.90
18581;DHT22;9420;50.876;7.012;2023-05-23T08:00:05;15.60;99.90
18581;DHT22;9420;50.876;7.012;2023-05-23T08:02:34;15.80;99.90
18581;DHT22;9420;50.876;7.012;2023-05-23T08:05:03;15.70;99.90
18581;DHT22;9420;50.876;7.012;2023-05-23T08:07:30;15.80;99.90
18581;DHT22;9420;50.876;7.012;2023-05-23T08:09:57;15.80;99.90
18581;DHT22;9420;50.876;7.012;2023-05-23T08:12:24;15.90;99.90
18581;DHT22;9420;50.876;7.012;2023-05-23T08:14:51;15.80;99.90
18581;DHT22;9420;50.876;7.012;2023-05-23T08:17:18;15.90;99.90
18581;DHT22;9420;50.876;7.012;2023-05-23T08:19:45;15.80;99.90
18581;DHT22;9420;50.876;7.012;2023-05-23T08:22:14;15.60;99.90
18581;DHT22;9420;50.876;7.012;2023-05-23T08:24:41;15.70;99.90
18581;DHT22;9420;50.876;7.012;2023-05-23T08:27:08;15.50;99.90
18581;DHT22;9420;50.876;7.012;2023-05-23T08:29:35;15.50;99.90
18581;DHT22;9420;50.876;7.012;2023-05-23T08:32:03;15.60;99.90
18581;DHT22;9420;50.876;7.012;2023-05-23T08:34:30;15.60;99.90
18581;DHT22;9420;50.876;7.012;2023-05-23T08:36:57;15.60;99.90
18581;DHT22;9420;50.876;7.012;2023-05-23T08:39:25;15.50;96.30
18581;DHT22;9420;50.876;7.012;2023-05-23T08:41:52;15.50;99.90
18581;DHT22;9420;50.876;7.012;2023-05-23T08:44:20;15.50;99.90
18581;DHT22;9420;50.876;7.012;2023-05-23T08:46:47;15.50;79.20
18581;DHT22;9420;50.876;7.012;2023-05-23T08:49:19;15.50;99.90
18581;DHT22;9420;50.876;7.012;2023-05-23T08:51:51;15.50;18.60
18581;DHT22;9420;50.876;7.012;2023-05-23T08:54:24;15.40;99.90
18581;DHT22;9420;50.876;7.012;2023-05-23T08:56:53;15.40;99.90
18581;DHT22;9420;50.876;7.012;2023-05-23T08:59:21;15.40;99.90
18581;DHT22;9420;50.876;7.012;2023-05-23T09:01:50;15.40;99.90
18581;DHT22;9420;50.876;7.012;2023-05-23T09:04:18;15.40;99.90
18581;DHT22;9420;50.876;7.012;2023-05-23T09:06:45;15.40;99.90
18581;DHT22;9420;50.876;7.012;2023-05-23T09:09:12;15.20;99.90
18581;DHT22;9420;50.876;7.012;2023-05-23T09:11:41;15.30;1.00
18581;DHT22;9420;50.876;7.012;2023-05-23T09:14:10;15.20;1.00
18581;DHT22;9420;50.876;7.012;2023-05-23T09:16:39;15.20;1.00
18581;DHT22;9420;50.876;7.012;2023-05-23T09:19:13;15.30;1.00
18581;DHT22;9420;50.876;7.012;2023-05-23T09:21:42;15.20;1.00
18581;DHT22;9420;50.876;7.012;2023-05-23T09:24:10;15.20;1.00
18581;DHT22;9420;50.876;7.012;2023-05-23T09:26:37;15.30;1.00
18581;DHT22;9420;50.876;7.012;2023-05-23T09:29:06;15.30;99.90
18581;DHT22;9420;50.876;7.012;2023-05-23T09:31:33;15.10;99.90
18581;DHT22;9420;50.876;7.012;2023-05-23T09:34:00;15.20;1.00
18581;DHT22;9420;50.876;7.012;2023-05-23T09:36:28;15.30;99.90
18581;DHT22;9420;50.876;7.012;2023-05-23T09:39:01;15.30;99.90
18581;DHT22;9420;50.876;7.012;2023-05-23T09:41:31;15.40;99.90
18581;DHT22;9420;50.876;7.012;2023-05-23T09:44:06;15.40;99.90
18581;DHT22;9420;50.876;7.012;2023-05-23T09:46:35;15.30;99.90
18581;DHT22;9420;50.876;7.012;2023-05-23T09:49:14;15.30;99.90
18581;DHT22;9420;50.876;7.012;2023-05-23T09:51:42;15.30;99.90
18581;DHT22;9420;50.876;7.012;2023-05-23T09:54:09;15.20;1.00
18581;DHT22;9420;50.876;7.012;2023-05-23T09:56:39;15.00;99.90
18581;DHT22;9420;50.876;7.012;2023-05-23T09:59:11;15.00;99.90
18581;DHT22;9420;50.876;7.012;2023-05-23T10:01:41;15.10;99.90
18581;DHT22;9420;50.876;7.012;2023-05-23T10:04:13;15.10;99.90
18581;DHT22;9420;50.876;7.012;2023-05-23T10:06:49;14.90;99.90
18581;DHT22;9420;50.876;7.012;2023-05-23T10:09:20;15.00;95.00
18581;DHT22;9420;50.876;7.012;2023-05-23T10:15:14;15.00;1.00
18581;DHT22;9420;50.876;7.012;2023-05-23T10:18:08;15.00;1.00
18581;DHT22;9420;50.876;7.012;2023-05-23T10:20:39;15.10;1.00
18581;DHT22;9420;50.876;7.012;2023-05-23T10:23:11;15.20;1.00
18581;DHT22;9420;50.876;7.012;2023-05-23T10:25:39;15.20;1.00
18581;DHT22;9420;50.876;7.012;2023-05-23T10:28:07;15.40;1.00
18581;DHT22;9420;50.876;7.012;2023-05-23T10:30:37;15.70;1.00
18581;DHT22;9420;50.876;7.012;2023-05-23T10:33:05;16.00;1.00
18581;DHT22;9420;50.876;7.012;2023-05-23T10:35:41;16.10;99.90
18581;DHT22;9420;50.876;7.012;2023-05-23T10:38:25;15.70;99.90
18581;DHT22;9420;50.876;7.012;2023-05-23T10:41:03;15.60;1.00
18581;DHT22;9420;50.876;7.012;2023-05-23T10:43:41;15.20;1.00
18581;DHT22;9420;50.876;7.012;2023-05-23T10:46:14;15.60;1.00
18581;DHT22;9420;50.876;7.012;2023-05-23T10:48:42;16.10;99.90
18581;DHT22;9420;50.876;7.012;2023-05-23T10:51:11;16.10;99.90
18581;DHT22;9420;50.876;7.012;2023-05-23T10:53:41;16.80;43.00
18581;DHT22;9420;50.876;7.012;2023-05-23T10:56:10;17.10;1.00
18581;DHT22;9420;50.876;7.012;2023-05-23T10:58:46;16.70;1.00
18581;DHT22;9420;50.876;7.012;2023-05-23T11:01:20;16.40;1.00
18581;DHT22;9420;50.876;7.012;2023-05-23T11:03:50;16.10;1.00
18581;DHT22;9420;50.876;7.012;2023-05-23T11:06:29;16.10;1.00
18581;DHT22;9420;50.876;7.012;2023-05-23T11:09:02;16.60;1.00
18581;DHT22;9420;50.876;7.012;2023-05-23T11:11:50;16.70;1.00
18581;DHT22;9420;50.876;7.012;2023-05-23T11:14:18;16.10;1.00
18581;DHT22;9420;50.876;7.012;2023-05-23T11:16:47;16.30;1.00
18581;DHT22;9420;50.876;7.012;2023-05-23T11:19:22;16.50;1.00
18581;DHT22;9420;50.876;7.012;2023-05-23T11:21:56;17.10;1.00
18581;DHT22;9420;50.876;7.012;2023-05-23T11:24:47;17.00;1.00
18581;DHT22;9420;50.876;7.012;2023-05-23T11:27:16;16.60;1.00
18581;DHT22;9420;50.876;7.012;2023-05-23T11:29:56;16.30;1.00
18581;DHT22;9420;50.876;7.012;2023-05-23T11:32:27;15.70;1.00
18581;DHT22;9420;50.876;7.012;2023-05-23T11:34:58;16.20;1.00
18581;DHT22;9420;50.876;7.012;2023-05-23T11:37:26;15.80;1.00
18581;DHT22;9420;50.876;7.012;2023-05-23T11:39:54;15.80;1.00
18581;DHT22;9420;50.876;7.012;2023-05-23T11:42:21;15.70;1.00
18581;DHT22;9420;50.876;7.012;2023-05-23T11:44:49;15.60;1.00
18581;DHT22;9420;50.876;7.012;2023-05-23T11:47:17;15.50;1.00
18581;DHT22;9420;50.876;7.012;2023-05-23T11:49:46;15.60;1.00
18581;DHT22;9420;50.876;7.012;2023-05-23T11:52:14;15.40;1.00
18581;DHT22;9420;50.876;7.012;2023-05-23T11:54:41;15.70;1.00
18581;DHT22;9420;50.876;7.012;2023-05-23T11:57:09;15.90;1.00
18581;DHT22;9420;50.876;7.012;2023-05-23T11:59:36;16.50;99.90
18581;DHT22;9420;50.876;7.012;2023-05-23T12:02:05;16.60;99.90
18581;DHT22;9420;50.876;7.012;2023-05-23T12:04:33;16.90;99.90
18581;DHT22;9420;50.876;7.012;2023-05-23T12:07:05;17.10;99.90
18581;DHT22;9420;50.876;7.012;2023-05-23T12:09:41;17.40;99.90
18581;DHT22;9420;50.876;7.012;2023-05-23T12:12:08;16.70;99.90
18581;DHT22;9420;50.876;7.012;2023-05-23T12:14:36;17.30;99.90
18581;DHT22;9420;50.876;7.012;2023-05-23T12:17:10;17.40;99.90
18581;DHT22;9420;50.876;7.012;2023-05-23T12:19:37;17.00;62.10
18581;DHT22;9420;50.876;7.012;2023-05-23T12:22:06;16.90;66.50
18581;DHT22;9420;50.876;7.012;2023-05-23T12:24:33;17.70;75.20
18581;DHT22;9420;50.876;7.012;2023-05-23T12:27:02;17.60;18.30
18581;DHT22;9420;50.876;7.012;2023-05-23T12:29:31;17.80;1.00
18581;DHT22;9420;50.876;7.012;2023-05-23T12:32:00;17.40;1.00
18581;DHT22;9420;50.876;7.012;2023-05-23T12:34:29;17.30;1.00
18581;DHT22;9420;50.876;7.012;2023-05-23T12:36:56;17.10;1.00
18581;DHT22;9420;50.876;7.012;2023-05-23T12:39:27;16.80;1.00
18581;DHT22;9420;50.876;7.012;2023-05-23T12:41:54;16.70;1.00
18581;DHT22;9420;50.876;7.012;2023-05-23T12:44:25;16.90;1.00
18581;DHT22;9420;50.876;7.012;2023-05-23T12:46:55;17.20;1.00
18581;DHT22;9420;50.876;7.012;2023-05-23T12:49:23;17.20;1.00
18581;DHT22;9420;50.876;7.012;2023-05-23T12:51:50;17.20;1.00
18581;DHT22;9420;50.876;7.012;2023-05-23T12:54:17;17.30;1.00
18581;DHT22;9420;50.876;7.012;2023-05-23T12:56:45;17.40;1.00
18581;DHT22;9420;50.876;7.012;2023-05-23T12:59:12;17.30;1.00
18581;DHT22;9420;50.876;7.012;2023-05-23T13:01:39;16.90;1.00
18581;DHT22;9420;50.876;7.012;2023-05-23T13:04:06;17.30;1.00
18581;DHT22;9420;50.876;7.012;2023-05-23T13:06:33;17.20;1.00
18581;DHT22;9420;50.876;7.012;2023-05-23T13:09:00;17.40;1.00
18581;DHT22;9420;50.876;7.012;2023-05-23T13:11:28;17.50;1.00
18581;DHT22;9420;50.876;7.012;2023-05-23T13:13:57;17.90;1.00
18581;DHT22;9420;50.876;7.012;2023-05-23T13:16:24;17.90;1.00
18581;DHT22;9420;50.876;7.012;2023-05-23T13:18:51;18.20;1.00
18581;DHT22;9420;50.876;7.012;2023-05-23T13:21:18;18.20;1.00
18581;DHT22;9420;50.876;7.012;2023-05-23T13:23:45;18.10;1.00
18581;DHT22;9420;50.876;7.012;2023-05-23T13:26:12;17.90;1.00
18581;DHT22;9420;50.876;7.012;2023-05-23T13:28:40;17.90;1.00
18581;DHT22;9420;50.876;7.012;2023-05-23T13:31:08;17.40;1.00
18581;DHT22;9420;50.876;7.012;2023-05-23T13:33:35;17.10;1.00
18581;DHT22;9420;50.876;7.012;2023-05-23T13:36:03;17.50;1.00
18581;DHT22;9420;50.876;7.012;2023-05-23T13:38:30;18.10;1.00
18581;DHT22;9420;50.876;7.012;2023-05-23T13:40:57;17.70;1.00
18581;DHT22;9420;50.876;7.012;2023-05-23T13:43:24;18.20;1.00
18581;DHT22;9420;50.876;7.012;2023-05-23T13:45:52;18.40;1.00
18581;DHT22;9420;50.876;7.012;2023-05-23T13:48:20;18.60;1.00
18581;DHT22;9420;50.876;7.012;2023-05-23T13:50:47;19.50;1.00
18581;DHT22;9420;50.876;7.012;2023-05-23T13:53:14;19.80;1.00
18581;DHT22;9420;50.876;7.012;2023-05-23T13:55:41;19.10;1.00
18581;DHT22;9420;50.876;7.012;2023-05-23T13:58:10;20.00;1.00
18581;DHT22;9420;50.876;7.012;2023-05-23T14:00:38;20.50;1.00
18581;DHT22;9420;50.876;7.012;2023-05-23T14:03:05;20.30;1.00
18581;DHT22;9420;50.876;7.012;2023-05-23T14:05:35;19.70;1.00
18581;DHT22;9420;50.876;7.012;2023-05-23T14:08:02;18.70;99.90
18581;DHT22;9420;50.876;7.012;2023-05-23T14:10:30;18.80;99.90
18581;DHT22;9420;50.876;7.012;2023-05-23T14:12:57;19.10;99.90
18581;DHT22;9420;50.876;7.012;2023-05-23T14:15:26;18.70;99.90
18581;DHT22;9420;50.876;7.012;2023-05-23T14:17:52;19.00;99.90
18581;DHT22;9420;50.876;7.012;2023-05-23T14:20:20;20.60;99.90
18581;DHT22;9420;50.876;7.012;2023-05-23T14:22:49;21.40;99.90
18581;DHT22;9420;50.876;7.012;2023-05-23T14:25:17;22.60;99.90
18581;DHT22;9420;50.876;7.012;2023-05-23T14:27:44;22.60;99.90
18581;DHT22;9420;50.876;7.012;2023-05-23T14:30:12;22.60;99.90
18581;DHT22;9420;50.876;7.012;2023-05-23T14:32:39;23.00;99.90
18581;DHT22;9420;50.876;7.012;2023-05-23T14:35:08;22.10;99.90
18581;DHT22;9420;50.876;7.012;2023-05-23T14:37:36;22.80;99.90
18581;DHT22;9420;50.876;7.012;2023-05-23T14:40:07;22.60;99.90
18581;DHT22;9420;50.876;7.012;2023-05-23T14:42:35;20.70;99.90
18581;DHT22;9420;50.876;7.012;2023-05-23T14:45:02;20.80;99.90
18581;DHT22;9420;50.876;7.012;2023-05-23T14:47:30;20.00;99.90
18581;DHT22;9420;50.876;7.012;2023-05-23T14:49:57;20.90;99.90
18581;DHT22;9420;50.876;7.012;2023-05-23T14:52:24;19.80;99.90
18581;DHT22;9420;50.876;7.012;2023-05-23T14:54:51;20.00;99.90
18581;DHT22;9420;50.876;7.012;2023-05-23T14:57:20;19.60;99.90
18581;DHT22;9420;50.876;7.012;2023-05-23T14:59:47;20.80;99.90
18581;DHT22;9420;50.876;7.012;2023-05-23T15:02:14;20.80;99.90
18581;DHT22;9420;50.876;7.012;2023-05-23T15:04:41;20.70;99.90
18581;DHT22;9420;50.876;7.012;2023-05-23T15:07:08;20.80;99.90
18581;DHT22;9420;50.876;7.012;2023-05-23T15:09:35;21.60;99.90
18581;DHT22;9420;50.876;7.012;2023-05-23T15:12:03;22.20;99.90
18581;DHT22;9420;50.876;7.012;2023-05-23T15:14:33;23.50;99.90
18581;DHT22;9420;50.876;7.012;2023-05-23T15:17:00;23.20;99.90
18581;DHT22;9420;50.876;7.012;2023-05-23T15:19:33;22.90;99.90
18581;DHT22;9420;50.876;7.012;2023-05-23T15:22:00;22.20;99.90
18581;DHT22;9420;50.876;7.012;2023-05-23T15:24:27;20.40;95.30
18581;DHT22;9420;50.876;7.012;2023-05-23T15:26:55;19.90;90.30
18581;DHT22;9420;50.876;7.012;2023-05-23T15:29:23;19.30;90.00
18581;DHT22;9420;50.876;7.012;2023-05-23T15:31:51;19.20;89.30
18581;DHT22;9420;50.876;7.012;2023-05-23T15:34:19;19.60;99.90
18581;DHT22;9420;50.876;7.012;2023-05-23T15:36:46;19.90;96.40
18581;DHT22;9420;50.876;7.012;2023-05-23T15:39:13;19.40;86.30
18581;DHT22;9420;50.876;7.012;2023-05-23T15:41:41;19.90;96.50
18581;DHT22;9420;50.876;7.012;2023-05-23T15:44:08;20.20;90.60
18581;DHT22;9420;50.876;7.012;2023-05-23T15:46:35;20.40;89.00
18581;DHT22;9420;50.876;7.012;2023-05-23T15:49:04;19.20;76.10
18581;DHT22;9420;50.876;7.012;2023-05-23T15:51:31;18.90;89.00
18581;DHT22;9420;50.876;7.012;2023-05-23T15:53:58;18.90;88.70
18581;DHT22;9420;50.876;7.012;2023-05-23T15:56:25;19.10;68.50
18581;DHT22;9420;50.876;7.012;2023-05-23T15:58:52;18.30;59.30
18581;DHT22;9420;50.876;7.012;2023-05-23T16:01:19;18.20;86.20
18581;DHT22;9420;50.876;7.012;2023-05-23T16:03:46;18.20;74.40
18581;DHT22;9420;50.876;7.012;2023-05-23T16:06:14;18.50;82.20
18581;DHT22;9420;50.876;7.012;2023-05-23T16:08:41;18.40;88.00